createdAt,value
2023-03-03T00:01:38.991Z,0.40
2023-03-03T00:04:08.497Z,0.40
2023-03-03T00:06:37.990Z,0.40
2023-03-03T00:09:07.452Z,0.40
2023-03-03T00:11:36.933Z,0.40
2023-03-03T00:14:19.289Z,0.40
2023-03-03T00:16:50.252Z,0.40
2023-03-03T00:19:20.697Z,0.40
2023-03-03T00:21:51.208Z,0.40
2023-03-03T00:24:22.499Z,0.40
2023-03-03T00:26:52.808Z,0.40
2023-03-03T00:29:28.560Z,0.40
2023-03-03T00:32:01.840Z,0.40
2023-03-03T00:34:31.849Z,0.40
2023-03-03T00:37:01.351Z,0.40
2023-03-03T00:39:32.621Z,0.40
2023-03-03T00:42:04.440Z,0.40
2023-03-03T00:44:42.205Z,0.40
2023-03-03T00:47:31.667Z,0.40
2023-03-03T00:50:18.384Z,0.40
2023-03-03T00:52:55.088Z,0.33
2023-03-03T00:55:24.602Z,0.40
2023-03-03T00:57:54.050Z,0.40
2023-03-03T01:00:28.386Z,0.40
2023-03-03T01:02:58.312Z,0.40
2023-03-03T01:05:29.186Z,0.33
2023-03-03T01:07:58.686Z,0.40
2023-03-03T01:10:28.979Z,0.40
2023-03-03T01:12:58.812Z,0.40
2023-03-03T01:15:28.290Z,0.40
2023-03-03T01:17:57.826Z,0.40
2023-03-03T01:20:28.709Z,0.40
2023-03-03T01:22:58.219Z,0.40
2023-03-03T01:25:27.722Z,0.40
2023-03-03T01:27:57.206Z,0.50
2023-03-03T01:30:27.002Z,0.40
2023-03-03T01:32:56.482Z,0.40
2023-03-03T01:35:26.153Z,0.40
2023-03-03T01:37:57.099Z,0.40
2023-03-03T01:40:27.745Z,0.40
2023-03-03T01:42:57.269Z,0.50
2023-03-03T01:45:27.426Z,0.40
2023-03-03T01:48:01.666Z,0.40
2023-03-03T01:50:37.015Z,0.40
2023-03-03T01:53:12.903Z,0.40
2023-03-03T01:55:43.276Z,0.40
2023-03-03T01:58:14.391Z,0.40
2023-03-03T02:00:46.823Z,0.40
2023-03-03T02:03:16.327Z,0.40
2023-03-03T02:05:45.998Z,0.40
2023-03-03T02:08:19.324Z,0.40
2023-03-03T02:10:49.900Z,0.40
2023-03-03T02:13:20.532Z,0.40
2023-03-03T02:15:50.050Z,0.50
2023-03-03T02:18:21.131Z,0.47
2023-03-03T02:20:55.774Z,0.47
2023-03-03T02:23:29.451Z,0.40
2023-03-03T02:26:09.359Z,0.40
2023-03-03T02:28:39.788Z,0.40
2023-03-03T02:31:13.573Z,0.33
2023-03-03T02:33:44.651Z,0.40
2023-03-03T02:36:15.342Z,0.40
2023-03-03T02:38:47.572Z,0.30
2023-03-03T02:41:22.238Z,0.40
2023-03-03T02:43:55.098Z,0.40
2023-03-03T02:46:24.904Z,0.40
2023-03-03T02:48:54.453Z,0.40
2023-03-03T02:51:23.983Z,0.50
2023-03-03T02:53:53.537Z,0.40
2023-03-03T02:56:24.460Z,0.40
2023-03-03T02:58:54.573Z,0.40
2023-03-03T03:01:25.078Z,0.40
2023-03-03T03:03:56.727Z,0.50
2023-03-03T03:06:26.312Z,0.40
2023-03-03T03:08:55.860Z,0.40
2023-03-03T03:11:26.718Z,0.30
2023-03-03T03:13:56.201Z,0.40
2023-03-03T03:16:25.812Z,0.40
2023-03-03T03:18:55.429Z,0.40
2023-03-03T03:21:25.429Z,0.40
2023-03-03T03:23:55.628Z,0.40
2023-03-03T03:26:27.235Z,0.40
2023-03-03T03:28:57.070Z,0.40
2023-03-03T03:31:27.789Z,0.40
2023-03-03T03:33:57.319Z,0.40
2023-03-03T03:36:28.405Z,0.40
2023-03-03T03:38:58.205Z,0.40
2023-03-03T03:41:29.479Z,0.50
2023-03-03T03:43:58.963Z,0.40
2023-03-03T03:46:28.606Z,0.40
2023-03-03T03:48:58.124Z,0.40
2023-03-03T03:51:28.352Z,0.40
2023-03-03T03:53:57.975Z,0.50
2023-03-03T03:56:29.091Z,0.40
2023-03-03T03:59:01.217Z,0.40
2023-03-03T04:01:31.034Z,0.40
2023-03-03T04:04:00.760Z,0.47
2023-03-03T04:06:30.319Z,0.40
2023-03-03T04:08:59.968Z,0.50
2023-03-03T04:11:32.919Z,0.40
2023-03-03T04:14:02.522Z,0.40
2023-03-03T04:16:32.328Z,0.40
2023-03-03T04:19:01.847Z,0.40
2023-03-03T04:21:31.529Z,0.33
2023-03-03T04:24:02.320Z,0.40
2023-03-03T04:26:34.041Z,0.40
2023-03-03T04:29:05.856Z,0.40
2023-03-03T04:31:36.008Z,0.40
2023-03-03T04:34:07.308Z,0.40
2023-03-03T04:36:37.985Z,0.40
2023-03-03T04:39:07.727Z,0.43
2023-03-03T04:41:38.669Z,0.40
2023-03-03T04:44:08.266Z,0.40
2023-03-03T04:46:37.805Z,0.50
2023-03-03T04:49:09.792Z,0.40
2023-03-03T04:51:41.108Z,0.50
2023-03-03T04:54:11.135Z,0.50
2023-03-03T04:56:42.047Z,0.40
2023-03-03T04:59:12.101Z,0.40
2023-03-03T05:01:41.988Z,0.40
2023-03-03T05:04:11.913Z,0.40
2023-03-03T05:06:41.646Z,0.40
2023-03-03T05:09:11.302Z,0.40
2023-03-03T05:11:42.154Z,0.40
2023-03-03T05:14:12.485Z,0.40
2023-03-03T05:16:42.165Z,0.40
2023-03-03T05:19:11.790Z,0.40
2023-03-03T05:21:42.715Z,0.40
2023-03-03T05:24:12.944Z,0.40
2023-03-03T05:26:43.875Z,0.40
2023-03-03T05:29:13.433Z,0.50
2023-03-03T05:31:45.481Z,0.40
2023-03-03T05:34:15.312Z,0.40
2023-03-03T05:36:44.894Z,0.40
2023-03-03T05:39:14.379Z,0.40
2023-03-03T05:41:45.312Z,0.40
2023-03-03T05:44:14.843Z,0.40
2023-03-03T05:46:44.412Z,0.40
2023-03-03T05:49:13.954Z,0.30
2023-03-03T05:51:43.479Z,0.43
2023-03-03T05:54:12.945Z,0.40
2023-03-03T05:56:42.447Z,0.40
2023-03-03T05:59:13.312Z,0.40
2023-03-03T06:01:42.946Z,0.40
2023-03-03T06:04:12.530Z,0.40
2023-03-03T06:06:42.075Z,0.40
2023-03-03T06:09:11.588Z,0.40
2023-03-03T06:11:41.111Z,0.40
2023-03-03T06:14:10.630Z,0.40
2023-03-03T06:16:41.555Z,0.30
2023-03-03T06:19:11.116Z,0.40
2023-03-03T06:21:40.815Z,0.40
2023-03-03T06:24:10.656Z,0.40
2023-03-03T06:26:40.164Z,0.40
2023-03-03T06:29:11.334Z,0.40
2023-03-03T06:31:42.323Z,0.30
2023-03-03T06:34:11.904Z,0.40
2023-03-03T06:36:41.658Z,0.40
2023-03-03T06:39:11.154Z,0.40
2023-03-03T06:41:40.821Z,0.40
2023-03-03T06:44:11.880Z,0.40
2023-03-03T06:46:42.832Z,0.40
2023-03-03T06:49:12.374Z,0.40
2023-03-03T06:51:42.719Z,0.30
2023-03-03T06:54:13.709Z,0.40
2023-03-03T06:56:43.821Z,0.37
2023-03-03T06:59:15.028Z,0.40
2023-03-03T07:01:46.505Z,0.30
2023-03-03T07:04:18.346Z,0.40
2023-03-03T07:06:47.990Z,0.40
2023-03-03T07:09:22.303Z,0.40
2023-03-03T07:11:52.130Z,0.30
2023-03-03T07:14:47.549Z,0.30
2023-03-03T07:17:19.505Z,0.40
2023-03-03T07:19:49.896Z,0.30
2023-03-03T07:22:20.190Z,0.40
2023-03-03T07:24:52.907Z,0.30
2023-03-03T07:27:25.678Z,0.40
2023-03-03T07:29:56.185Z,0.30
2023-03-03T07:32:31.991Z,0.40
2023-03-03T07:35:01.558Z,0.40
2023-03-03T07:37:32.793Z,0.30
2023-03-03T07:40:02.570Z,0.40
2023-03-03T07:42:37.853Z,0.30
2023-03-03T07:45:24.499Z,0.40
2023-03-03T07:47:57.984Z,0.30
2023-03-03T07:50:27.585Z,0.30
2023-03-03T07:52:57.846Z,0.30
2023-03-03T07:55:32.149Z,0.40
2023-03-03T07:58:16.655Z,0.40
2023-03-03T08:01:13.095Z,0.40
2023-03-03T08:03:46.898Z,0.30
2023-03-03T08:06:30.617Z,0.37
2023-03-03T08:09:03.881Z,0.30
2023-03-03T08:11:33.356Z,0.40
2023-03-03T08:14:03.429Z,0.30
2023-03-03T08:16:38.558Z,0.30
2023-03-03T08:19:09.603Z,0.40
2023-03-03T08:21:39.338Z,0.30
2023-03-03T08:24:08.874Z,0.30
2023-03-03T08:26:38.359Z,0.30
2023-03-03T08:29:07.859Z,0.40
2023-03-03T08:31:41.765Z,0.30
2023-03-03T08:34:12.896Z,0.30
2023-03-03T08:36:42.397Z,0.30
2023-03-03T08:39:11.935Z,0.30
2023-03-03T08:41:43.847Z,0.30
2023-03-03T08:44:13.456Z,0.30
2023-03-03T08:46:44.104Z,0.30
2023-03-03T08:49:15.018Z,0.30
2023-03-03T08:51:44.570Z,0.30
2023-03-03T08:54:14.070Z,0.30
2023-03-03T08:56:43.572Z,0.30
2023-03-03T08:59:13.544Z,0.30
2023-03-03T09:01:44.741Z,0.30
2023-03-03T09:04:15.699Z,0.30
2023-03-03T09:06:45.185Z,0.30
2023-03-03T09:09:14.654Z,0.30
2023-03-03T09:11:44.416Z,0.30
2023-03-03T09:14:14.678Z,0.30
2023-03-03T09:16:53.229Z,0.33
2023-03-03T09:19:27.424Z,0.30
2023-03-03T09:21:57.561Z,0.30
2023-03-03T09:24:28.435Z,0.33
2023-03-03T09:26:59.428Z,0.30
2023-03-03T09:29:30.279Z,0.30
2023-03-03T09:32:02.229Z,0.30
2023-03-03T09:34:40.178Z,0.30
2023-03-03T09:37:20.785Z,0.30
2023-03-03T09:39:51.495Z,0.30
2023-03-03T09:42:43.528Z,0.33
2023-03-03T09:45:23.048Z,0.30
2023-03-03T09:48:16.192Z,0.30
2023-03-03T09:50:51.233Z,0.30
2023-03-03T09:53:23.913Z,0.30
2023-03-03T09:55:56.400Z,0.30
2023-03-03T09:58:45.573Z,0.30
2023-03-03T10:01:26.170Z,0.30
2023-03-03T10:04:03.417Z,0.30
2023-03-03T10:06:36.987Z,0.30
2023-03-03T10:09:20.624Z,0.30
2023-03-03T10:11:52.128Z,0.30
2023-03-03T10:14:32.907Z,0.30
2023-03-03T10:17:17.021Z,0.30
2023-03-03T10:19:52.270Z,0.30
2023-03-03T10:22:27.302Z,0.30
2023-03-03T10:25:04.885Z,0.30
2023-03-03T10:27:43.440Z,0.30
2023-03-03T10:30:15.374Z,0.30
2023-03-03T10:32:51.747Z,0.30
2023-03-03T10:35:27.010Z,0.30
2023-03-03T10:38:05.129Z,0.30
2023-03-03T10:40:37.553Z,0.30
2023-03-03T10:43:26.053Z,0.30
2023-03-03T10:46:17.970Z,0.30
2023-03-03T10:49:02.374Z,0.30
2023-03-03T10:51:35.715Z,0.30
2023-03-03T10:54:11.660Z,0.33
2023-03-03T10:56:53.332Z,0.20
2023-03-03T10:59:36.613Z,0.30
2023-03-03T11:02:10.039Z,0.30
2023-03-03T11:04:51.254Z,0.30
2023-03-03T11:07:23.561Z,0.30
2023-03-03T11:10:03.412Z,0.30
2023-03-03T11:12:38.193Z,0.30
2023-03-03T11:15:18.345Z,0.30
2023-03-03T11:17:55.985Z,0.20
2023-03-03T11:20:33.251Z,0.30
2023-03-03T11:23:09.652Z,0.30
2023-03-03T11:25:47.559Z,0.27
2023-03-03T11:28:22.591Z,0.20
2023-03-03T11:30:56.130Z,0.20
2023-03-03T11:33:30.214Z,0.30
2023-03-03T11:36:07.870Z,0.30
2023-03-03T11:38:42.749Z,0.20
2023-03-03T11:41:19.544Z,0.30
2023-03-03T11:43:52.256Z,0.30
2023-03-03T11:46:24.002Z,0.30
2023-03-03T11:48:56.332Z,0.20
2023-03-03T11:51:29.984Z,0.30
2023-03-03T11:54:01.403Z,0.20
2023-03-03T11:56:36.695Z,0.20
2023-03-03T11:59:15.849Z,0.20
2023-03-03T12:01:47.237Z,0.20
2023-03-03T12:04:18.001Z,0.20
2023-03-03T12:06:55.515Z,0.20
2023-03-03T12:09:29.626Z,0.20
2023-03-03T12:12:06.007Z,0.20
2023-03-03T12:14:41.733Z,0.20
2023-03-03T12:17:19.134Z,0.20
2023-03-03T12:19:52.635Z,0.20
2023-03-03T12:22:30.722Z,0.20
2023-03-03T12:25:06.846Z,0.20
2023-03-03T12:27:41.332Z,0.20
2023-03-03T12:30:15.898Z,0.20
2023-03-03T12:32:56.570Z,0.30
2023-03-03T12:35:30.180Z,0.20
2023-03-03T12:38:05.304Z,0.20
2023-03-03T12:40:36.166Z,0.20
2023-03-03T12:43:12.786Z,0.20
2023-03-03T12:45:48.038Z,0.20
2023-03-03T12:48:19.138Z,0.20
2023-03-03T12:50:59.085Z,0.20
2023-03-03T12:53:36.243Z,0.20
2023-03-03T12:56:06.858Z,0.30
2023-03-03T12:58:46.378Z,0.20
2023-03-03T13:01:22.171Z,0.20
2023-03-03T13:03:57.793Z,0.20
2023-03-03T13:06:30.899Z,0.20
2023-03-03T13:09:05.608Z,0.20
2023-03-03T13:11:40.778Z,0.20
2023-03-03T13:14:15.915Z,0.20
2023-03-03T13:16:47.714Z,0.20
2023-03-03T13:19:19.109Z,0.20
2023-03-03T13:21:53.511Z,0.20
2023-03-03T13:24:25.074Z,0.20
2023-03-03T13:26:56.242Z,0.20
2023-03-03T13:29:28.758Z,0.20
2023-03-03T13:31:58.933Z,0.20
2023-03-03T13:34:35.726Z,0.20
2023-03-03T13:37:07.373Z,0.20
2023-03-03T13:39:40.234Z,0.20
2023-03-03T13:42:19.622Z,0.20
2023-03-03T13:44:52.059Z,0.20
2023-03-03T13:47:25.380Z,0.20
2023-03-03T13:50:05.646Z,0.20
2023-03-03T13:52:40.686Z,0.20
2023-03-03T13:55:15.324Z,0.20
2023-03-03T13:57:47.130Z,0.20
2023-03-03T14:00:36.811Z,0.23
2023-03-03T14:03:25.150Z,0.20
2023-03-03T14:05:58.204Z,0.20
2023-03-03T14:08:31.384Z,0.20
2023-03-03T14:11:07.350Z,0.20
2023-03-03T14:13:41.236Z,0.13
2023-03-03T14:16:16.973Z,0.20
2023-03-03T14:18:55.268Z,0.20
2023-03-03T14:21:29.944Z,0.20
2023-03-03T14:24:03.805Z,0.20
2023-03-03T14:26:33.478Z,0.20
2023-03-03T14:29:15.488Z,0.20
2023-03-03T14:31:46.524Z,0.20
2023-03-03T14:34:27.320Z,0.20
2023-03-03T14:37:01.219Z,0.20
2023-03-03T14:39:34.767Z,0.20
2023-03-03T14:42:07.327Z,0.20
2023-03-03T14:44:38.339Z,0.30
2023-03-03T14:47:21.773Z,0.20
2023-03-03T14:49:51.889Z,0.20
2023-03-03T14:52:23.682Z,0.30
2023-03-03T14:54:53.872Z,0.30
2023-03-03T14:57:30.322Z,0.30
2023-03-03T15:00:02.892Z,0.30
2023-03-03T15:02:37.089Z,0.20
2023-03-03T15:05:20.119Z,0.30
2023-03-03T15:07:50.703Z,0.30
2023-03-03T15:10:31.170Z,0.30
2023-03-03T15:13:02.246Z,0.20
2023-03-03T15:15:31.910Z,0.30
2023-03-03T15:18:04.294Z,0.30
2023-03-03T15:20:37.714Z,0.30
2023-03-03T15:23:22.724Z,0.30
2023-03-03T15:25:58.835Z,0.30
2023-03-03T15:28:33.553Z,0.30
2023-03-03T15:31:05.569Z,0.30
2023-03-03T15:33:38.927Z,0.30
2023-03-03T15:36:10.832Z,0.30
2023-03-03T15:38:47.051Z,0.30
2023-03-03T15:41:28.234Z,0.30
2023-03-03T15:44:05.504Z,0.30
2023-03-03T15:46:41.772Z,0.30
2023-03-03T15:49:20.503Z,0.30
2023-03-03T15:52:03.532Z,0.30
2023-03-03T15:54:37.993Z,0.30
2023-03-03T15:57:13.282Z,0.30
2023-03-03T15:59:57.416Z,0.30
2023-03-03T16:02:28.908Z,0.30
2023-03-03T16:05:01.608Z,0.30
2023-03-03T16:07:37.279Z,0.30
2023-03-03T16:10:13.996Z,0.30
2023-03-03T16:12:49.576Z,0.30
2023-03-03T16:15:29.407Z,0.30
2023-03-03T16:18:01.943Z,0.30
2023-03-03T16:20:35.339Z,0.30
2023-03-03T16:23:16.482Z,0.30
2023-03-03T16:25:54.825Z,0.30
2023-03-03T16:28:28.053Z,0.37
2023-03-03T16:31:00.158Z,0.30
2023-03-03T16:33:34.620Z,0.37
2023-03-03T16:36:08.693Z,0.30
2023-03-03T16:38:40.382Z,0.30
2023-03-03T16:41:13.435Z,0.30
2023-03-03T16:43:48.161Z,0.30
2023-03-03T16:46:24.011Z,0.37
2023-03-03T16:48:55.964Z,0.30
2023-03-03T16:51:30.754Z,0.30
2023-03-03T16:54:04.963Z,0.30
2023-03-03T16:56:38.107Z,0.30
2023-03-03T16:59:20.004Z,0.30
2023-03-03T17:01:52.585Z,0.30
2023-03-03T17:04:33.482Z,0.40
2023-03-03T17:07:10.059Z,0.37
2023-03-03T17:09:49.829Z,0.40
2023-03-03T17:12:27.426Z,0.30
2023-03-03T17:15:11.132Z,0.30
2023-03-03T17:17:45.086Z,0.40
2023-03-03T17:20:23.943Z,0.30
2023-03-03T17:23:00.775Z,0.33
2023-03-03T17:25:36.052Z,0.30
2023-03-03T17:28:10.798Z,0.30
2023-03-03T17:30:43.681Z,0.37
2023-03-03T17:33:20.623Z,0.30
2023-03-03T17:35:57.476Z,0.40
2023-03-03T17:38:33.942Z,0.40
2023-03-03T17:41:05.986Z,0.40
2023-03-03T17:43:40.873Z,0.40
2023-03-03T17:46:15.398Z,0.30
2023-03-03T17:49:00.044Z,0.30
2023-03-03T17:51:42.748Z,0.30
2023-03-03T17:54:20.874Z,0.30
2023-03-03T17:56:54.262Z,0.40
2023-03-03T17:59:41.765Z,0.33
2023-03-03T18:02:32.323Z,0.40
2023-03-03T18:05:10.959Z,0.40
2023-03-03T18:07:47.912Z,0.40
2023-03-03T18:10:33.360Z,0.40
2023-03-03T18:13:08.230Z,0.40
2023-03-03T18:16:11.050Z,0.40
2023-03-03T18:18:47.447Z,0.30
2023-03-03T18:21:17.650Z,0.30
2023-03-03T18:23:47.924Z,0.30
2023-03-03T18:26:36.652Z,0.30
2023-03-03T18:29:28.024Z,0.30
2023-03-03T18:32:05.320Z,0.30
2023-03-03T18:34:39.062Z,0.30
2023-03-03T18:37:11.850Z,0.40
2023-03-03T18:39:43.475Z,0.30
2023-03-03T18:42:32.753Z,0.30
2023-03-03T18:45:11.774Z,0.30
2023-03-03T18:48:01.909Z,0.30
2023-03-03T18:50:34.943Z,0.30
2023-03-03T18:53:18.703Z,0.40
2023-03-03T18:55:48.751Z,0.40
2023-03-03T18:58:33.101Z,0.30
2023-03-03T19:01:10.141Z,0.30
2023-03-03T19:03:56.944Z,0.40
2023-03-03T19:06:33.317Z,0.40
2023-03-03T19:09:02.989Z,0.40
2023-03-03T19:11:34.947Z,0.37
2023-03-03T19:14:20.934Z,0.40
2023-03-03T19:16:52.389Z,0.30
2023-03-03T19:19:22.627Z,0.37
2023-03-03T19:21:54.207Z,0.30
2023-03-03T19:24:28.041Z,0.30
2023-03-03T19:27:04.595Z,0.30
2023-03-03T19:29:52.774Z,0.30
2023-03-03T19:32:35.372Z,0.30
2023-03-03T19:35:14.557Z,0.30
2023-03-03T19:37:49.551Z,0.30
2023-03-03T19:40:22.667Z,0.30
2023-03-03T19:42:58.680Z,0.40
2023-03-03T19:45:35.688Z,0.37
2023-03-03T19:48:12.940Z,0.30
2023-03-03T19:50:49.148Z,0.40
2023-03-03T19:53:30.194Z,0.40
2023-03-03T19:56:12.420Z,0.30
2023-03-03T19:58:46.478Z,0.40
2023-03-03T20:01:19.612Z,0.30
2023-03-03T20:04:10.203Z,0.30
2023-03-03T20:06:45.992Z,0.30
2023-03-03T20:09:24.474Z,0.30
2023-03-03T20:12:04.046Z,0.30
2023-03-03T20:14:38.460Z,0.40
2023-03-03T20:17:19.164Z,0.40
2023-03-03T20:19:53.950Z,0.40
2023-03-03T20:22:32.251Z,0.37
2023-03-03T20:25:07.412Z,0.30
2023-03-03T20:27:42.309Z,0.30
2023-03-03T20:30:21.514Z,0.37
2023-03-03T20:32:58.861Z,0.30
2023-03-03T20:35:33.998Z,0.30
2023-03-03T20:38:11.566Z,0.30
2023-03-03T20:40:46.051Z,0.30
2023-03-03T20:43:21.906Z,0.30
2023-03-03T20:45:55.035Z,0.30
2023-03-03T20:48:31.981Z,0.30
2023-03-03T20:51:05.754Z,0.30
2023-03-03T20:53:39.890Z,0.30
2023-03-03T20:56:13.515Z,0.30
2023-03-03T20:58:47.239Z,0.30
2023-03-03T21:01:18.101Z,0.30
2023-03-03T21:03:47.685Z,0.23
2023-03-03T21:06:19.394Z,0.30
2023-03-03T21:08:54.357Z,0.30
2023-03-03T21:11:24.764Z,0.30
2023-03-03T21:13:54.912Z,0.30
2023-03-03T21:16:35.659Z,0.30
2023-03-03T21:19:05.809Z,0.30
2023-03-03T21:21:36.805Z,0.30
2023-03-03T21:24:08.128Z,0.30
2023-03-03T21:26:47.780Z,0.30
2023-03-03T21:29:18.675Z,0.30
2023-03-03T21:31:48.752Z,0.30
2023-03-03T21:34:35.849Z,0.30
2023-03-03T21:37:06.695Z,0.30
2023-03-03T21:39:38.479Z,0.30
2023-03-03T21:42:08.669Z,0.30
2023-03-03T21:44:39.399Z,0.30
2023-03-03T21:47:10.148Z,0.30
2023-03-03T21:49:42.582Z,0.30
2023-03-03T21:52:12.616Z,0.30
2023-03-03T21:54:43.610Z,0.30
2023-03-03T21:57:13.127Z,0.30
2023-03-03T21:59:42.826Z,0.30
2023-03-03T22:02:12.341Z,0.30
2023-03-03T22:04:42.274Z,0.30
2023-03-03T22:07:12.118Z,0.30
2023-03-03T22:09:42.958Z,0.30
2023-03-03T22:12:12.527Z,0.30
2023-03-03T22:14:42.070Z,0.30
2023-03-03T22:17:11.799Z,0.30
2023-03-03T22:19:41.285Z,0.30
2023-03-03T22:22:10.736Z,0.30
2023-03-03T22:24:40.185Z,0.30
2023-03-03T22:27:12.123Z,0.30
2023-03-03T22:29:41.583Z,0.30
2023-03-03T22:32:11.061Z,0.20
2023-03-03T22:34:40.741Z,0.30
2023-03-03T22:37:10.250Z,0.30
2023-03-03T22:39:39.686Z,0.30
2023-03-03T22:42:10.237Z,0.30
2023-03-03T22:44:41.063Z,0.30
2023-03-03T22:47:10.552Z,0.30
2023-03-03T22:49:42.123Z,0.30
2023-03-03T22:52:11.623Z,0.30
2023-03-03T22:54:41.157Z,0.30
2023-03-03T22:57:10.694Z,0.30
2023-03-03T22:59:41.543Z,0.30
2023-03-03T23:02:11.114Z,0.30
2023-03-03T23:04:40.648Z,0.30
2023-03-03T23:07:10.302Z,0.30
2023-03-03T23:09:39.871Z,0.20
2023-03-03T23:12:09.459Z,0.30
2023-03-03T23:14:39.071Z,0.30
2023-03-03T23:17:09.961Z,0.30
2023-03-03T23:19:39.459Z,0.30
2023-03-03T23:22:08.922Z,0.30
2023-03-03T23:24:38.381Z,0.30
2023-03-03T23:27:07.888Z,0.30
2023-03-03T23:29:37.507Z,0.30
2023-03-03T23:32:07.460Z,0.30
2023-03-03T23:34:38.328Z,0.30
2023-03-03T23:37:07.848Z,0.30
2023-03-03T23:39:37.367Z,0.30
2023-03-03T23:42:07.065Z,0.30
2023-03-03T23:44:37.617Z,0.30
2023-03-03T23:47:07.170Z,0.30
2023-03-03T23:49:38.172Z,0.30
2023-03-03T23:52:08.347Z,0.30
2023-03-03T23:54:37.864Z,0.30
2023-03-03T23:57:08.076Z,0.30
2023-03-03T23:59:37.697Z,0.30
